Time;durP1;ratioP1;P1;durP2;ratioP2;P2;SDS_P1;SDS_P2;PMS_P1;PMS_P2;Temp;Humidity;BMP_temperature;BMP_pressure;BME280_temperature;BME280_humidity;BME280_pressure;Samples;Min_cycle;Max_cycle;Signal;HPM_P1;HPM_P2
2023/08/31 00:00:13;;;;;;;2.55;1.75;;;;;;;12.63;100.00;95349.06;4988390;28;24443;-76
2023/08/31 00:02:41;;;;;;;2.28;1.40;;;;;;;12.67;100.00;95358.25;4992784;28;24448;-75
2023/08/31 00:05:08;;;;;;;4.38;1.80;;;;;;;12.64;100.00;95355.91;4977631;28;24508;-75
2023/08/31 00:07:35;;;;;;;3.50;1.60;;;;;;;12.66;100.00;95368.78;4973376;28;24434;-75
2023/08/31 00:10:06;;;;;;;3.42;1.70;;;;;;;12.59;100.00;95360.63;4973875;28;24434;-75
2023/08/31 00:12:32;;;;;;;2.08;1.67;;;;;;;12.50;100.00;95369.16;4983964;28;24515;-75
2023/08/31 00:15:00;;;;;;;3.20;1.30;;;;;;;12.50;100.00;95369.97;4978759;28;24442;-75
2023/08/31 00:17:27;;;;;;;2.50;1.50;;;;;;;12.30;100.00;95366.28;4973486;28;24434;-75
2023/08/31 00:19:54;;;;;;;3.40;1.70;;;;;;;12.12;100.00;95362.47;4973625;28;24444;-75
2023/08/31 00:22:21;;;;;;;2.17;1.55;;;;;;;12.01;100.00;95373.66;4973541;28;24438;-75
2023/08/31 00:24:47;;;;;;;3.75;1.70;;;;;;;12.01;100.00;95375.44;4984822;28;25024;-75
2023/08/31 00:27:15;;;;;;;4.45;1.73;;;;;;;11.93;100.00;95385.56;4991971;28;24441;-75
2023/08/31 00:29:43;;;;;;;2.90;1.80;;;;;;;12.01;100.00;95375.44;4976052;28;24463;-75
2023/08/31 00:32:11;;;;;;;3.30;1.33;;;;;;;12.07;100.00;95368.03;4985664;28;24437;-75
2023/08/31 00:34:38;;;;;;;3.72;1.50;;;;;;;12.00;100.00;95374.63;4983688;28;24451;-75
2023/08/31 00:37:05;;;;;;;3.55;1.45;;;;;;;12.09;100.00;95373.13;4977978;28;24484;-75
2023/08/31 00:39:33;;;;;;;2.92;1.50;;;;;;;12.20;100.00;95360.16;4974174;28;24786;-75
2023/08/31 00:42:00;;;;;;;2.72;1.65;;;;;;;12.17;100.00;95360.38;4980041;28;24444;-75
2023/08/31 00:44:27;;;;;;;1.70;1.40;;;;;;;12.17;100.00;95364.75;4985985;28;24505;-75
2023/08/31 00:46:54;;;;;;;4.03;1.60;;;;;;;12.17;100.00;95362.16;4975754;28;24440;-75
2023/08/31 00:49:23;;;;;;;2.65;1.60;;;;;;;12.19;100.00;95361.09;4972977;28;24540;-75
2023/08/31 00:51:50;;;;;;;2.60;1.77;;;;;;;12.11;100.00;95366.03;4972888;28;24488;-75
2023/08/31 00:54:17;;;;;;;2.88;1.52;;;;;;;11.83;100.00;95368.09;4975865;28;24857;-75
2023/08/31 00:56:44;;;;;;;6.93;1.70;;;;;;;11.82;100.00;95365.56;4980706;28;24441;-75
2023/08/31 00:59:11;;;;;;;3.15;1.80;;;;;;;11.84;100.00;95358.53;4981628;28;24433;-75
2023/08/31 01:01:43;;;;;;;2.75;1.52;;;;;;;11.90;100.00;95359.84;4982379;28;24444;-75
2023/08/31 01:04:21;;;;;;;2.70;1.70;;;;;;;11.84;100.00;95369.75;4979731;28;24549;-75
2023/08/31 01:06:55;;;;;;;2.30;1.40;;;;;;;11.86;100.00;95370.47;4980932;28;24453;-75
2023/08/31 01:09:36;;;;;;;2.88;1.70;;;;;;;11.91;100.00;95375.31;4982620;28;24543;-75
2023/08/31 01:12:07;;;;;;;3.35;1.67;;;;;;;11.90;100.00;95375.41;4980543;28;24449;-75
2023/08/31 01:14:39;;;;;;;2.28;1.50;;;;;;;11.88;100.00;95374.72;4980820;28;24814;-74
2023/08/31 01:17:08;;;;;;;3.10;1.77;;;;;;;11.91;100.00;95382.28;4981893;28;24495;-74
2023/08/31 01:19:45;;;;;;;2.85;1.52;;;;;;;11.69;100.00;95375.22;4977508;28;24977;-75
2023/08/31 01:22:19;;;;;;;3.08;2.00;;;;;;;11.73;100.00;95380.06;4981206;28;25083;-74
2023/08/31 01:24:47;;;;;;;8.15;2.10;;;;;;;11.58;100.00;95382.00;4978070;28;24441;-75
2023/08/31 01:27:14;;;;;;;6.50;1.70;;;;;;;11.50;100.00;95384.34;4977688;28;24445;-74
2023/08/31 01:29:40;;;;;;;1.75;1.50;;;;;;;11.61;100.00;95391.34;4982698;28;24461;-74
2023/08/31 01:32:08;;;;;;;2.22;1.65;;;;;;;11.63;100.00;95394.63;4983050;28;24452;-75
2023/08/31 01:34:34;;;;;;;3.60;1.50;;;;;;;11.67;100.00;95385.69;4982599;28;25199;-75
2023/08/31 01:37:05;;;;;;;1.73;1.40;;;;;;;11.71;100.00;95387.13;4980049;28;24511;-75
2023/08/31 01:39:38;;;;;;;2.67;1.50;;;;;;;11.76;100.00;95397.19;4981956;28;24436;-74
2023/08/31 01:42:07;;;;;;;2.67;1.50;;;;;;;11.82;100.00;95399.31;4980290;28;24449;-74
2023/08/31 01:44:36;;;;;;;5.88;1.70;;;;;;;11.86;100.00;95393.81;4980662;28;24528;-74
2023/08/31 01:47:06;;;;;;;1.73;1.30;;;;;;;11.81;100.00;95393.28;4979533;28;24438;-74
2023/08/31 01:49:37;;;;;;;4.10;1.40;;;;;;;11.56;100.00;95393.44;4981078;28;24507;-74
2023/08/31 01:52:04;;;;;;;2.08;1.60;;;;;;;11.50;100.00;95393.88;4981215;28;24805;-74
2023/08/31 01:54:30;;;;;;;2.63;1.50;;;;;;;11.47;100.00;95400.13;4979968;28;24486;-74
2023/08/31 01:56:57;;;;;;;2.35;1.50;;;;;;;11.51;100.00;95406.72;4978872;28;24467;-74
2023/08/31 01:59:26;;;;;;;2.80;1.40;;;;;;;11.59;100.00;95403.59;4979773;28;25168;-74
2023/08/31 02:01:52;;;;;;;1.80;1.50;;;;;;;11.53;100.00;95404.88;4977342;28;24433;-74
2023/08/31 02:04:19;;;;;;;3.20;1.55;;;;;;;11.61;100.00;95406.91;4971350;28;24449;-74
2023/08/31 02:06:45;;;;;;;2.80;1.80;;;;;;;11.57;100.00;95390.75;4973427;28;24445;-74
2023/08/31 02:09:13;;;;;;;2.65;1.60;;;;;;;11.60;100.00;95393.09;4990479;28;24456;-75
2023/08/31 02:11:39;;;;;;;2.10;1.60;;;;;;;11.62;100.00;95399.00;4989676;28;24471;-75
2023/08/31 02:14:07;;;;;;;3.13;1.80;;;;;;;11.35;100.00;95406.19;4990845;28;24482;-74
2023/08/31 02:16:35;;;;;;;4.25;1.98;;;;;;;11.31;100.00;95400.41;4980855;28;24441;-74
2023/08/31 02:19:01;;;;;;;1.77;1.67;;;;;;;11.35;100.00;95407.00;4990447;28;25266;-75
2023/08/31 02:21:28;;;;;;;2.97;2.00;;;;;;;11.32;100.00;95403.81;4981243;28;24438;-74
2023/08/31 02:23:54;;;;;;;2.97;1.83;;;;;;;11.32;100.00;95409.81;4971258;28;24473;-74
2023/08/31 02:26:22;;;;;;;3.97;1.95;;;;;;;11.30;100.00;95406.50;4971228;28;24409;-75
2023/08/31 02:28:48;;;;;;;2.42;1.70;;;;;;;11.32;100.00;95407.22;4971049;28;24456;-75
2023/08/31 02:31:15;;;;;;;2.00;1.40;;;;;;;11.38;100.00;95406.81;4979820;28;24433;-75
2023/08/31 02:33:43;;;;;;;3.10;1.85;;;;;;;11.37;100.00;95415.50;4990088;28;24461;-75
2023/08/31 02:36:09;;;;;;;1.58;1.48;;;;;;;11.37;100.00;95415.50;4986983;28;24817;-75
2023/08/31 02:38:35;;;;;;;2.75;1.55;;;;;;;11.34;100.00;95409.69;4990295;28;24429;-75
2023/08/31 02:41:02;;;;;;;2.65;1.50;;;;;;;11.22;100.00;95415.75;4983742;28;24936;-75
2023/08/31 02:43:30;;;;;;;2.33;1.48;;;;;;;11.22;100.00;95413.19;4980216;28;25007;-74
2023/08/31 02:46:01;;;;;;;2.80;1.63;;;;;;;11.28;100.00;95420.53;4976298;28;24511;-74
2023/08/31 02:48:29;;;;;;;4.00;1.60;;;;;;;11.25;100.00;95421.56;4970934;28;24495;-75
2023/08/31 02:50:57;;;;;;;2.10;1.53;;;;;;;11.34;100.00;95415.72;4972521;28;24465;-75
2023/08/31 02:53:24;;;;;;;2.05;1.45;;;;;;;11.43;100.00;95418.59;4982823;28;24806;-74
2023/08/31 02:55:51;;;;;;;2.85;1.77;;;;;;;11.42;100.00;95414.34;4981456;28;24448;-74
2023/08/31 02:58:17;;;;;;;2.40;1.50;;;;;;;11.44;100.00;95421.06;4975889;28;24466;-74
2023/08/31 03:00:47;;;;;;;3.38;1.48;;;;;;;11.45;100.00;95419.31;4974403;28;24818;-75
2023/08/31 03:03:14;;;;;;;2.63;1.52;;;;;;;11.48;100.00;95417.31;4986382;28;24999;-75
2023/08/31 03:05:40;;;;;;;1.58;1.23;;;;;;;11.47;100.00;95420.03;4989452;28;24789;-74
2023/08/31 03:08:08;;;;;;;1.45;1.25;;;;;;;11.47;100.00;95423.44;4988318;28;24444;-74
2023/08/31 03:10:35;;;;;;;1.23;1.13;;;;;;;11.50;100.00;95419.81;4981437;28;24565;-75
2023/08/31 03:13:01;;;;;;;2.33;1.30;;;;;;;11.48;100.00;95427.69;4989972;28;24436;-75
2023/08/31 03:15:28;;;;;;;3.00;1.40;;;;;;;11.54;100.00;95426.44;4982311;28;24442;-75
2023/08/31 03:17:54;;;;;;;1.83;1.42;;;;;;;11.57;100.00;95426.22;4980723;28;24448;-74
2023/08/31 03:20:21;;;;;;;4.03;1.60;;;;;;;11.56;100.00;95434.91;4989901;28;24480;-74
2023/08/31 03:22:47;;;;;;;3.20;1.45;;;;;;;11.53;100.00;95429.94;4989732;28;24445;-75
2023/08/31 03:25:16;;;;;;;2.70;1.42;;;;;;;11.52;100.00;95418.75;4989954;28;24495;-75
2023/08/31 03:27:42;;;;;;;4.40;1.58;;;;;;;11.54;100.00;95427.25;4979451;28;24449;-75
2023/08/31 03:30:10;;;;;;;3.53;1.30;;;;;;;11.59;100.00;95422.56;4983193;28;24507;-75
2023/08/31 03:32:36;;;;;;;1.75;1.33;;;;;;;11.58;100.00;95430.47;4986089;28;24437;-75
2023/08/31 03:35:04;;;;;;;2.80;1.60;;;;;;;11.54;100.00;95427.25;4994123;28;24433;-74
2023/08/31 03:37:30;;;;;;;2.33;1.52;;;;;;;11.51;100.00;95432.66;4993800;28;24429;-74
2023/08/31 03:39:57;;;;;;;3.47;1.77;;;;;;;11.38;100.00;95431.88;4993968;28;24421;-73
2023/08/31 03:42:24;;;;;;;3.63;1.20;;;;;;;11.38;100.00;95440.50;4993827;28;24425;-74
2023/08/31 03:44:51;;;;;;;2.27;1.53;;;;;;;11.27;100.00;95435.25;4993497;28;24965;-74
2023/08/31 03:47:17;;;;;;;3.05;1.70;;;;;;;11.34;100.00;95430.44;4993604;28;24421;-73
2023/08/31 03:49:44;;;;;;;2.28;1.33;;;;;;;11.43;100.00;95439.34;4993684;28;24464;-73
2023/08/31 03:52:10;;;;;;;2.10;1.35;;;;;;;11.47;100.00;95441.59;4978042;28;24437;-74
2023/08/31 03:54:37;;;;;;;3.50;1.60;;;;;;;11.44;100.00;95446.19;4974193;28;24432;-73
2023/08/31 03:57:03;;;;;;;5.20;1.60;;;;;;;11.39;100.00;95443.94;4973995;28;24421;-73
2023/08/31 03:59:31;;;;;;;3.03;1.70;;;;;;;11.26;100.00;95438.75;4974119;28;24417;-74
2023/08/31 04:01:58;;;;;;;2.75;1.50;;;;;;;11.29;100.00;95450.69;4990791;28;24445;-73
2023/08/31 04:04:25;;;;;;;3.35;1.60;;;;;;;11.19;100.00;95447.09;4993302;28;24785;-74
2023/08/31 04:06:51;;;;;;;1.70;1.30;;;;;;;11.32;100.00;95448.72;4993001;28;24972;-74
2023/08/31 04:09:19;;;;;;;2.55;1.67;;;;;;;11.27;100.00;95452.56;4993340;28;24456;-74
2023/08/31 04:11:45;;;;;;;4.63;1.30;;;;;;;11.19;100.00;95457.44;4979432;28;24655;-74
2023/08/31 04:14:11;;;;;;;2.05;1.58;;;;;;;11.24;100.00;95460.56;4973903;28;24425;-74
2023/08/31 04:16:39;;;;;;;4.20;1.40;;;;;;;11.26;100.00;95448.31;4990963;28;24980;-73
2023/08/31 04:19:06;;;;;;;2.20;1.40;;;;;;;11.33;100.00;95458.13;4992940;28;24429;-74
2023/08/31 04:21:32;;;;;;;4.00;1.60;;;;;;;11.43;100.00;95455.72;4992850;28;24925;-73
2023/08/31 04:23:59;;;;;;;4.22;1.90;;;;;;;11.50;100.00;95462.13;4992887;28;24433;-73
2023/08/31 04:26:26;;;;;;;7.13;1.55;;;;;;;11.49;100.00;95463.06;4993013;28;24417;-74
2023/08/31 04:28:52;;;;;;;4.55;1.50;;;;;;;11.50;100.00;95456.94;4992955;28;24428;-73
2023/08/31 04:31:19;;;;;;;2.88;1.30;;;;;;;11.62;100.00;95469.03;4992627;28;24461;-73
2023/08/31 04:33:47;;;;;;;2.55;1.48;;;;;;;11.32;100.00;95458.25;5000042;28;24448;-73
2023/08/31 04:36:13;;;;;;;2.00;1.50;;;;;;;11.42;100.00;95461.00;4997145;28;24528;-73
2023/08/31 04:38:40;;;;;;;1.63;1.20;;;;;;;11.30;100.00;95475.66;4991481;28;24448;-73
2023/08/31 04:41:06;;;;;;;1.52;1.17;;;;;;;11.12;100.00;95472.59;4987630;28;24790;-71
2023/08/31 04:43:33;;;;;;;2.25;1.45;;;;;;;10.99;100.00;95484.75;4973159;28;24436;-72
2023/08/31 04:45:59;;;;;;;3.35;1.92;;;;;;;11.04;100.00;95477.50;4984553;28;24983;-72
2023/08/31 04:48:26;;;;;;;2.83;1.48;;;;;;;11.10;100.00;95482.25;4992603;28;24428;-74
2023/08/31 04:50:57;;;;;;;3.13;1.63;;;;;;;11.38;100.00;95470.78;4989632;28;24578;-72
2023/08/31 04:53:23;;;;;;;3.30;2.05;;;;;;;11.62;100.00;95468.22;4974648;28;24949;-72
2023/08/31 04:55:50;;;;;;;5.20;1.80;;;;;;;11.32;100.00;95484.19;4988532;28;24459;-73
2023/08/31 04:58:16;;;;;;;3.80;1.57;;;;;;;11.30;100.00;95486.88;4991677;28;24444;-75
2023/08/31 05:00:44;;;;;;;3.83;1.75;;;;;;;11.24;100.00;95481.31;4974384;28;24802;-72
2023/08/31 05:03:10;;;;;;;3.05;2.08;;;;;;;11.19;100.00;95483.38;4974447;28;24445;-73
2023/08/31 05:05:37;;;;;;;4.85;1.90;;;;;;;11.09;100.00;95483.19;4972305;28;24421;-72
2023/08/31 05:08:06;;;;;;;3.00;1.60;;;;;;;11.18;100.00;95489.50;4972453;28;24441;-72
2023/08/31 05:10:32;;;;;;;4.28;1.90;;;;;;;11.27;100.00;95496.63;4972395;28;24441;-72
2023/08/31 05:13:01;;;;;;;3.17;1.80;;;;;;;11.32;100.00;95504.94;4990761;28;24440;-74
2023/08/31 05:15:28;;;;;;;6.47;2.20;;;;;;;11.37;100.00;95513.19;4991667;28;24425;-72
2023/08/31 05:17:55;;;;;;;4.25;2.63;;;;;;;11.27;100.00;95518.22;4991320;28;24428;-73
2023/08/31 05:20:23;;;;;;;7.85;2.72;;;;;;;11.37;100.00;95514.03;4978408;28;24684;-72
2023/08/31 05:22:50;;;;;;;4.55;2.88;;;;;;;11.36;100.00;95519.31;4989163;28;24476;-72
2023/08/31 05:25:17;;;;;;;4.75;2.50;;;;;;;11.45;100.00;95520.44;4985422;28;24783;-73
2023/08/31 05:27:44;;;;;;;4.55;2.38;;;;;;;11.50;100.00;95515.78;4989433;28;24794;-74
2023/08/31 05:30:11;;;;;;;3.83;2.43;;;;;;;11.43;100.00;95524.91;4989379;28;24545;-74
2023/08/31 05:32:38;;;;;;;2.70;2.10;;;;;;;11.48;100.00;95520.22;4974203;28;24810;-73
2023/08/31 05:35:05;;;;;;;1.98;1.55;;;;;;;11.42;100.00;95525.84;4989360;28;24444;-76
2023/08/31 05:37:35;;;;;;;4.93;2.05;;;;;;;11.37;100.00;95528.75;4984823;28;24870;-75
2023/08/31 05:40:03;;;;;;;4.25;1.88;;;;;;;11.40;100.00;95528.56;4971715;28;24437;-76
2023/08/31 05:42:33;;;;;;;3.42;1.90;;;;;;;11.40;100.00;95538.91;4984594;28;24444;-75
2023/08/31 05:45:00;;;;;;;3.72;1.80;;;;;;;11.38;100.00;95541.63;4984929;28;24437;-75
2023/08/31 05:47:26;;;;;;;5.30;2.00;;;;;;;11.46;100.00;95540.25;4971650;28;24452;-75
2023/08/31 05:49:53;;;;;;;2.23;1.60;;;;;;;11.50;100.00;95533.94;4981429;28;24464;-76
2023/08/31 05:52:19;;;;;;;2.78;1.77;;;;;;;11.54;100.00;95535.38;4978209;28;24438;-76
2023/08/31 05:54:45;;;;;;;5.13;1.75;;;;;;;11.47;100.00;95544.50;4971775;28;24949;-76
2023/08/31 05:57:12;;;;;;;2.75;1.40;;;;;;;11.45;100.00;95543.78;4970815;28;24426;-75
2023/08/31 05:59:40;;;;;;;4.03;1.50;;;;;;;11.39;100.00;95539.88;4979014;28;24441;-75
2023/08/31 06:02:08;;;;;;;3.13;1.58;;;;;;;11.43;100.00;95549.09;4985479;28;24456;-75
2023/08/31 06:04:35;;;;;;;6.00;1.60;;;;;;;11.50;100.00;95552.09;4974719;28;24448;-75
2023/08/31 06:07:01;;;;;;;3.07;1.50;;;;;;;11.50;100.00;95554.69;4977389;28;24996;-74
2023/08/31 06:09:28;;;;;;;2.92;1.58;;;;;;;11.63;100.00;95556.28;4986402;28;24808;-74
2023/08/31 06:11:54;;;;;;;1.98;1.35;;;;;;;11.73;100.00;95556.47;4976191;28;24468;-76
2023/08/31 06:14:21;;;;;;;2.47;1.35;;;;;;;11.76;100.00;95558.84;4985163;28;24802;-77
2023/08/31 06:16:49;;;;;;;6.22;1.80;;;;;;;11.89;100.00;95558.00;4971221;28;24445;-76
2023/08/31 06:19:16;;;;;;;2.45;1.60;;;;;;;11.93;100.00;95556.84;4974930;28;24532;-76
2023/08/31 06:21:42;;;;;;;5.43;1.80;;;;;;;11.98;100.00;95550.41;4982586;28;24539;-77
2023/08/31 06:24:10;;;;;;;2.37;1.80;;;;;;;12.22;100.00;95558.19;4982834;28;24514;-76
2023/08/31 06:26:37;;;;;;;4.57;2.17;;;;;;;12.27;100.00;95550.03;4971243;28;24984;-76
2023/08/31 06:29:04;;;;;;;3.97;2.03;;;;;;;12.39;100.00;95563.94;4982067;28;24433;-76
2023/08/31 06:31:30;;;;;;;3.40;1.90;;;;;;;12.30;100.00;95565.41;4994008;28;24884;-76
2023/08/31 06:33:58;;;;;;;2.40;1.73;;;;;;;12.14;100.00;95570.88;5000346;28;24448;-76
2023/08/31 06:36:25;;;;;;;2.45;1.80;;;;;;;12.00;100.00;95577.06;4997788;28;24448;-76
2023/08/31 06:38:51;;;;;;;3.30;1.80;;;;;;;12.11;100.00;95568.50;4989565;28;24440;-75
2023/08/31 06:41:18;;;;;;;2.45;1.90;;;;;;;12.07;100.00;95574.88;4973808;28;24440;-75
2023/08/31 06:43:45;;;;;;;3.00;2.00;;;;;;;12.01;100.00;95565.72;4983915;28;24460;-75
2023/08/31 06:46:12;;;;;;;5.78;1.80;;;;;;;12.15;100.00;95574.31;4986924;28;24442;-75
2023/08/31 06:48:38;;;;;;;3.50;1.90;;;;;;;12.34;100.00;95574.63;4996405;28;24440;-75
2023/08/31 06:51:06;;;;;;;3.65;2.10;;;;;;;12.68;100.00;95567.81;4991345;28;24833;-76
2023/08/31 06:53:33;;;;;;;4.07;1.67;;;;;;;12.98;100.00;95569.88;4998964;28;24447;-76
2023/08/31 06:55:59;;;;;;;4.63;2.10;;;;;;;13.37;100.00;95572.16;4995092;28;24441;-75
2023/08/31 06:58:25;;;;;;;3.08;2.10;;;;;;;13.45;100.00;95582.81;4989940;28;24801;-76
2023/08/31 07:00:52;;;;;;;4.60;1.98;;;;;;;13.70;100.00;95585.16;4990383;28;24467;-76
2023/08/31 07:03:18;;;;;;;6.00;2.20;;;;;;;14.07;100.00;95571.84;4974118;28;24453;-75
2023/08/31 07:05:45;;;;;;;3.38;2.13;;;;;;;14.34;100.00;95571.41;4971080;28;24420;-76
2023/08/31 07:08:13;;;;;;;4.13;1.92;;;;;;;14.49;100.00;95575.41;4972733;28;24492;-76
2023/08/31 07:10:39;;;;;;;4.80;2.08;;;;;;;14.56;100.00;95573.13;4984428;28;24459;-76
2023/08/31 07:13:06;;;;;;;5.13;2.05;;;;;;;14.74;100.00;95579.44;4994402;28;24424;-75
2023/08/31 07:15:32;;;;;;;2.67;1.70;;;;;;;14.34;100.00;95584.44;4994215;28;24956;-76
2023/08/31 07:17:59;;;;;;;5.57;2.03;;;;;;;14.34;100.00;95587.03;4994300;28;24428;-75
2023/08/31 07:20:26;;;;;;;5.93;2.30;;;;;;;14.41;100.00;95587.38;4992957;28;24413;-75
2023/08/31 07:22:52;;;;;;;3.78;1.95;;;;;;;14.74;100.00;95589.88;4980350;28;25019;-72
2023/08/31 07:25:20;;;;;;;4.85;2.28;;;;;;;14.63;100.00;95600.34;4983649;28;24441;-77
2023/08/31 07:27:47;;;;;;;4.00;1.88;;;;;;;14.53;100.00;95599.44;4974739;28;24424;-76
2023/08/31 07:30:14;;;;;;;4.43;1.90;;;;;;;14.79;100.00;95599.09;4980217;28;24492;-75
2023/08/31 07:32:40;;;;;;;6.72;2.00;;;;;;;14.92;100.00;95602.34;4994050;28;24983;-76
2023/08/31 07:35:07;;;;;;;4.70;2.20;;;;;;;14.72;100.00;95599.59;4994162;28;24421;-77
2023/08/31 07:37:34;;;;;;;5.15;2.10;;;;;;;14.75;100.00;95603.72;4982609;28;24457;-75
2023/08/31 07:40:01;;;;;;;5.50;2.00;;;;;;;14.95;100.00;95605.53;4978111;28;24451;-78
2023/08/31 07:42:29;;;;;;;4.85;2.20;;;;;;;15.01;100.00;95597.19;4993811;28;24429;-76
2023/08/31 07:44:55;;;;;;;4.75;1.90;;;;;;;15.04;100.00;95614.34;4994112;28;24496;-77
2023/08/31 07:47:22;;;;;;;3.70;1.80;;;;;;;15.10;100.00;95603.44;4993811;28;24424;-76
2023/08/31 07:49:48;;;;;;;5.53;2.20;;;;;;;15.25;100.00;95616.97;4990042;28;24810;-75
2023/08/31 07:52:15;;;;;;;4.63;2.20;;;;;;;15.22;100.00;95610.22;4982151;28;24453;-75
2023/08/31 07:54:42;;;;;;;3.55;1.88;;;;;;;15.44;100.00;95618.84;4982871;28;24452;-76
2023/08/31 07:57:08;;;;;;;4.45;1.90;;;;;;;15.53;100.00;95622.47;4976178;28;24529;-77
2023/08/31 07:59:39;;;;;;;7.00;2.03;;;;;;;15.38;100.00;95621.97;4989150;28;24437;-76
2023/08/31 08:02:05;;;;;;;9.82;1.88;;;;;;;15.66;100.00;95626.56;4977483;28;24520;-75
2023/08/31 08:04:32;;;;;;;4.50;1.80;;;;;;;15.63;100.00;95620.72;4982506;28;24449;-74
2023/08/31 08:06:58;;;;;;;4.20;1.90;;;;;;;15.81;100.00;95624.41;4993856;28;25015;-74
2023/08/31 08:09:25;;;;;;;3.60;1.83;;;;;;;15.88;100.00;95624.72;4993692;28;24936;-74
2023/08/31 08:11:51;;;;;;;5.43;2.03;;;;;;;15.93;100.00;95630.34;4977925;28;24464;-77
2023/08/31 08:14:18;;;;;;;3.53;1.85;;;;;;;15.93;100.00;95630.34;4974313;28;24798;-75
2023/08/31 08:16:46;;;;;;;3.80;1.60;;;;;;;15.87;100.00;95636.09;4974324;28;24445;-75
2023/08/31 08:19:12;;;;;;;4.70;1.85;;;;;;;15.69;100.00;95635.91;4973751;28;24449;-75
2023/08/31 08:21:39;;;;;;;3.53;1.77;;;;;;;15.68;100.00;95636.84;4989195;28;24981;-77
2023/08/31 08:24:06;;;;;;;6.00;2.30;;;;;;;15.37;100.00;95638.59;4974180;28;24444;-77
2023/08/31 08:26:32;;;;;;;5.32;2.05;;;;;;;15.23;100.00;95640.56;4974980;28;24925;-76
2023/08/31 08:28:58;;;;;;;5.03;2.10;;;;;;;15.23;100.00;95643.16;4977649;28;24444;-76
2023/08/31 08:31:25;;;;;;;7.50;2.28;;;;;;;15.23;100.00;95644.97;4987739;28;24464;-77
2023/08/31 08:33:53;;;;;;;3.95;1.80;;;;;;;14.99;100.00;95653.03;4982643;28;24447;-77
2023/08/31 08:36:19;;;;;;;4.00;1.80;;;;;;;14.98;100.00;95649.63;4993362;28;24436;-76
2023/08/31 08:38:46;;;;;;;5.07;2.33;;;;;;;14.68;100.00;95649.50;4993036;28;24437;-76
2023/08/31 08:41:14;;;;;;;3.72;2.00;;;;;;;14.86;100.00;95649.78;4976695;28;24943;-74
2023/08/31 08:43:43;;;;;;;9.00;2.30;;;;;;;14.75;100.00;95653.25;4993025;28;24417;-74
2023/08/31 08:46:10;;;;;;;4.57;2.10;;;;;;;14.96;100.00;95661.94;4992748;28;24974;-73
2023/08/31 08:48:38;;;;;;;3.08;2.05;;;;;;;15.03;100.00;95667.47;4993007;28;24429;-76
2023/08/31 08:51:07;;;;;;;4.93;2.15;;;;;;;15.15;100.00;95669.06;4988939;28;24498;-76
2023/08/31 08:53:34;;;;;;;4.90;2.33;;;;;;;15.24;100.00;95670.13;4973072;28;24476;-76
2023/08/31 08:56:00;;;;;;;5.57;1.95;;;;;;;15.32;100.00;95680.75;4978698;28;24444;-77
2023/08/31 08:58:27;;;;;;;5.70;2.22;;;;;;;14.94;100.00;95665.63;4992984;28;24452;-76
2023/08/31 09:00:56;;;;;;;4.20;2.00;;;;;;;15.17;100.00;95672.41;4990610;28;24933;-76
2023/08/31 09:03:24;;;;;;;4.07;2.17;;;;;;;15.66;100.00;95670.94;4974778;28;24537;-76
2023/08/31 09:05:50;;;;;;;5.72;2.17;;;;;;;15.48;100.00;95677.66;4973425;28;24444;-75
2023/08/31 09:08:26;;;;;;;4.00;2.13;;;;;;;15.48;100.00;95675.88;4973262;28;24977;-74
2023/08/31 09:10:53;;;;;;;7.18;2.45;;;;;;;15.93;100.00;95683.41;4985197;28;24984;-75
2023/08/31 09:13:20;;;;;;;4.60;2.28;;;;;;;16.15;100.00;95676.34;4975464;28;24469;-77
2023/08/31 09:15:48;;;;;;;3.83;1.95;;;;;;;15.99;100.00;95689.09;4980998;28;24437;-77
2023/08/31 09:18:16;;;;;;;5.82;2.42;;;;;;;15.76;100.00;95685.81;4993284;28;24417;-77
2023/08/31 09:20:47;;;;;;;5.03;2.30;;;;;;;15.57;100.00;95684.72;4993235;28;24782;-76
2023/08/31 09:23:14;;;;;;;6.30;2.38;;;;;;;15.52;100.00;95684.28;4992647;28;24456;-80
2023/08/31 09:25:46;;;;;;;5.15;2.42;;;;;;;15.22;100.00;95692.88;4975634;28;24414;-76
2023/08/31 09:28:13;;;;;;;4.53;2.33;;;;;;;15.15;100.00;95687.34;4991445;28;24800;-76
2023/08/31 09:30:41;;;;;;;5.97;2.20;;;;;;;15.18;100.00;95683.66;4982008;28;24450;-79
2023/08/31 09:33:08;;;;;;;3.45;2.28;;;;;;;15.20;100.00;95687.81;4974542;28;24441;-77
2023/08/31 09:35:35;;;;;;;7.28;2.85;;;;;;;15.21;100.00;95694.66;4989449;28;25030;-77
2023/08/31 09:38:02;;;;;;;5.63;2.50;;;;;;;15.18;100.00;95688.88;4974465;28;24437;-77
2023/08/31 09:40:28;;;;;;;5.45;2.25;;;;;;;15.33;100.00;95684.16;4973674;28;24413;-76
2023/08/31 09:42:56;;;;;;;7.13;2.60;;;;;;;15.32;100.00;95693.78;4979804;28;24438;-77
2023/08/31 09:45:30;;;;;;;4.47;2.23;;;;;;;15.21;100.00;95697.28;4973336;28;25011;-78
2023/08/31 09:47:57;;;;;;;6.38;2.50;;;;;;;15.03;100.00;95688.34;4975470;28;24468;-76
2023/08/31 09:50:24;;;;;;;8.10;2.30;;;;;;;15.14;100.00;95693.50;4988138;28;24429;-75
2023/08/31 09:52:55;;;;;;;5.07;2.20;;;;;;;15.05;100.00;95696.84;4990998;28;24468;-76
2023/08/31 09:55:25;;;;;;;11.13;2.70;;;;;;;15.05;100.00;95699.47;4985009;28;24458;-76
2023/08/31 09:57:53;;;;;;;8.02;3.00;;;;;;;15.05;100.00;95706.47;4984987;28;24438;-76
2023/08/31 10:00:21;;;;;;;8.98;2.60;;;;;;;14.98;100.00;95708.75;4979143;28;24797;-76
2023/08/31 10:02:48;;;;;;;4.93;2.33;;;;;;;15.12;100.00;95712.84;4988025;28;24433;-76
2023/08/31 10:05:15;;;;;;;9.05;2.20;;;;;;;15.28;100.00;95708.03;4985127;28;24444;-76
2023/08/31 10:07:43;;;;;;;6.20;2.75;;;;;;;15.22;100.00;95704.13;4985577;28;24444;-76
2023/08/31 10:10:10;;;;;;;6.63;2.42;;;;;;;15.53;100.00;95703.38;4991149;28;24452;-76
2023/08/31 10:12:37;;;;;;;6.65;2.70;;;;;;;15.37;100.00;95707.25;4977462;28;24460;-76
2023/08/31 10:15:06;;;;;;;4.60;2.47;;;;;;;15.59;100.00;95706.31;4975673;28;24445;-76
2023/08/31 10:17:35;;;;;;;10.80;3.15;;;;;;;15.57;100.00;95705.59;4986609;28;24445;-76
2023/08/31 10:20:02;;;;;;;6.50;2.50;;;;;;;15.37;100.00;95701.22;4971898;28;24444;-76
2023/08/31 10:22:29;;;;;;;5.40;2.70;;;;;;;15.45;100.00;95707.44;4972350;28;25223;-76
2023/08/31 10:25:00;;;;;;;5.63;2.53;;;;;;;15.62;100.00;95702.63;4980789;28;24533;-76
2023/08/31 10:27:27;;;;;;;6.50;2.30;;;;;;;15.48;100.00;95707.19;4991181;28;24425;-78
2023/08/31 10:29:54;;;;;;;5.95;2.33;;;;;;;15.53;100.00;95703.38;4982646;28;24436;-76
2023/08/31 10:32:21;;;;;;;5.22;2.20;;;;;;;16.09;100.00;95706.47;4972005;28;24454;-76
2023/08/31 10:35:08;;;;;;;7.15;2.47;;;;;;;16.50;100.00;95707.28;4985670;28;24496;-76
2023/08/31 10:37:35;;;;;;;6.05;2.40;;;;;;;16.54;100.00;95700.81;4989840;28;24456;-76
2023/08/31 10:40:11;;;;;;;4.50;2.13;;;;;;;16.35;100.00;95701.59;4990821;28;25100;-76
2023/08/31 10:42:45;;;;;;;5.18;2.10;;;;;;;15.97;100.00;95694.44;4972094;28;24440;-76
2023/08/31 10:45:12;;;;;;;7.05;2.58;;;;;;;16.23;100.00;95705.25;4973467;28;24532;-78
2023/08/31 10:47:40;;;;;;;3.92;2.20;;;;;;;16.53;99.74;95688.69;4971602;28;24464;-75
2023/08/31 10:50:20;;;;;;;5.77;2.40;;;;;;;16.91;99.25;95684.53;4971562;28;24491;-75
2023/08/31 10:52:46;;;;;;;10.48;2.60;;;;;;;16.72;100.00;95693.13;4987266;28;24460;-75
2023/08/31 10:55:13;;;;;;;4.65;2.35;;;;;;;16.41;100.00;95689.78;4976923;28;24448;-74
2023/08/31 10:57:41;;;;;;;6.28;2.22;;;;;;;16.35;100.00;95693.75;4990762;28;24429;-74
2023/08/31 11:00:10;;;;;;;7.45;2.22;;;;;;;16.40;100.00;95688.94;4990839;28;24492;-77
2023/08/31 11:02:38;;;;;;;5.63;2.80;;;;;;;16.35;100.00;95692.91;4990717;28;24884;-76
2023/08/31 11:05:09;;;;;;;6.20;2.40;;;;;;;16.27;100.00;95692.75;4990275;28;24528;-75
2023/08/31 11:07:40;;;;;;;4.25;2.40;;;;;;;16.65;100.00;95692.03;4980390;28;24434;-76
2023/08/31 11:10:12;;;;;;;4.82;2.35;;;;;;;16.87;99.90;95689.19;4987875;28;24443;-76
2023/08/31 11:12:39;;;;;;;5.55;2.22;;;;;;;17.07;95.86;95694.44;4975419;28;24452;-76
2023/08/31 11:15:06;;;;;;;8.40;2.15;;;;;;;16.91;95.27;95680.09;4982553;28;25060;-76
2023/08/31 11:17:33;;;;;;;5.35;2.33;;;;;;;16.73;96.02;95686.94;4970931;28;25015;-76
2023/08/31 11:20:00;;;;;;;5.70;2.40;;;;;;;16.74;100.00;95682.56;4971253;28;24437;-76
2023/08/31 11:22:28;;;;;;;6.00;2.60;;;;;;;16.84;96.88;95678.19;4973189;28;24440;-75
2023/08/31 11:24:57;;;;;;;6.63;2.25;;;;;;;16.61;100.00;95673.19;4975480;28;24442;-75